createdAt,value
2017-09-19T00:01:17.564Z,52.50
2017-09-19T00:03:44.878Z,42.63
2017-09-19T00:06:11.114Z,39.13
2017-09-19T00:08:37.357Z,31.53
2017-09-19T00:11:04.331Z,25.03
2017-09-19T00:13:30.562Z,23.03
2017-09-19T00:15:56.825Z,21.30
2017-09-19T00:18:23.052Z,23.00
2017-09-19T00:20:49.285Z,22.57
2017-09-19T00:23:15.553Z,23.37
2017-09-19T00:25:42.556Z,23.47
2017-09-19T00:28:08.829Z,20.40
2017-09-19T00:30:35.808Z,23.67
2017-09-19T00:33:02.059Z,23.87
2017-09-19T00:35:28.309Z,21.60
2017-09-19T00:37:54.583Z,20.83
2017-09-19T00:40:20.816Z,20.50
2017-09-19T00:42:47.050Z,24.03
2017-09-19T00:45:13.505Z,24.23
2017-09-19T00:47:39.741Z,26.20
2017-09-19T00:50:05.980Z,21.23
2017-09-19T00:52:32.271Z,20.47
2017-09-19T00:54:58.514Z,21.43
2017-09-19T00:57:24.788Z,19.60
2017-09-19T00:59:51.805Z,20.07
2017-09-19T01:02:18.064Z,21.17
2017-09-19T01:04:45.042Z,21.20
2017-09-19T01:07:11.336Z,20.00
2017-09-19T01:09:38.325Z,21.00
2017-09-19T01:12:04.653Z,20.33
2017-09-19T01:14:30.925Z,20.80
2017-09-19T01:16:57.154Z,20.50
2017-09-19T01:19:23.409Z,20.67
2017-09-19T01:21:49.685Z,20.43
2017-09-19T01:24:15.940Z,36.10
2017-09-19T01:26:42.181Z,21.77
2017-09-19T01:29:09.396Z,40.10
2017-09-19T01:31:35.649Z,71.10
2017-09-19T01:34:01.897Z,36.63
2017-09-19T01:36:29.041Z,24.90
2017-09-19T01:38:55.997Z,22.57
2017-09-19T01:41:22.225Z,24.60
2017-09-19T01:43:48.500Z,24.10
2017-09-19T01:46:14.717Z,25.87
2017-09-19T01:48:40.935Z,26.17
2017-09-19T01:51:07.168Z,24.23
2017-09-19T01:53:33.412Z,26.07
2017-09-19T01:55:59.642Z,27.00
2017-09-19T01:58:25.881Z,27.50
2017-09-19T02:00:52.106Z,27.97
2017-09-19T02:03:18.329Z,27.30
2017-09-19T02:05:44.580Z,24.57
2017-09-19T02:08:10.833Z,25.43
2017-09-19T02:10:37.794Z,28.63
2017-09-19T02:13:04.068Z,26.10
2017-09-19T02:15:30.288Z,26.60
2017-09-19T02:17:56.512Z,30.40
2017-09-19T02:20:22.764Z,40.60
2017-09-19T02:22:49.732Z,28.70
2017-09-19T02:25:16.693Z,31.87
2017-09-19T02:27:42.924Z,36.00
2017-09-19T02:30:09.150Z,30.80
2017-09-19T02:32:35.381Z,37.73
2017-09-19T02:35:01.668Z,35.10
2017-09-19T02:37:27.912Z,39.93
2017-09-19T02:39:54.881Z,32.50
2017-09-19T02:42:21.134Z,30.93
2017-09-19T02:44:47.366Z,36.50
2017-09-19T02:47:13.589Z,26.03
2017-09-19T02:49:39.993Z,39.77
2017-09-19T02:52:06.212Z,33.57
2017-09-19T02:54:33.592Z,29.20
2017-09-19T02:56:59.856Z,23.30
2017-09-19T02:59:26.095Z,34.80
2017-09-19T03:01:52.322Z,27.30
2017-09-19T03:04:18.569Z,32.47
2017-09-19T03:06:45.549Z,26.90
2017-09-19T03:09:11.787Z,24.83
2017-09-19T03:11:38.032Z,24.67
2017-09-19T03:14:04.277Z,20.80
2017-09-19T03:16:30.504Z,21.70
2017-09-19T03:18:56.739Z,22.10
2017-09-19T03:21:22.987Z,24.17
2017-09-19T03:23:49.944Z,23.70
2017-09-19T03:26:16.286Z,22.93
2017-09-19T03:28:42.514Z,23.67
2017-09-19T03:31:08.751Z,24.03
2017-09-19T03:33:34.979Z,24.47
2017-09-19T03:36:01.237Z,23.93
2017-09-19T03:38:27.501Z,25.37
2017-09-19T03:40:54.464Z,26.90
2017-09-19T03:43:20.702Z,25.00
2017-09-19T03:45:46.984Z,24.83
2017-09-19T03:48:13.219Z,25.60
2017-09-19T03:50:39.444Z,28.90
2017-09-19T03:53:06.057Z,27.17
2017-09-19T03:55:32.290Z,30.33
2017-09-19T03:57:58.532Z,30.07
2017-09-19T04:00:24.820Z,30.77
2017-09-19T04:02:51.299Z,29.50
2017-09-19T04:05:17.528Z,32.00
2017-09-19T04:07:44.137Z,29.37
2017-09-19T04:10:10.398Z,30.30
2017-09-19T04:12:36.629Z,27.57
2017-09-19T04:15:02.917Z,28.97
2017-09-19T04:17:29.164Z,32.80
2017-09-19T04:19:55.389Z,31.80
2017-09-19T04:22:21.904Z,29.20
2017-09-19T04:24:48.129Z,32.03
2017-09-19T04:27:14.379Z,32.27
2017-09-19T04:29:40.654Z,28.80
2017-09-19T04:32:07.652Z,28.40
2017-09-19T04:34:33.894Z,30.77
2017-09-19T04:37:00.161Z,32.10
2017-09-19T04:39:26.400Z,32.20
2017-09-19T04:41:52.655Z,29.60
2017-09-19T04:44:19.112Z,30.00
2017-09-19T04:46:45.343Z,30.20
2017-09-19T04:49:11.568Z,30.57
2017-09-19T04:51:37.874Z,31.30
2017-09-19T04:54:04.085Z,31.97
2017-09-19T04:56:30.319Z,30.10
2017-09-19T04:58:56.569Z,30.70
2017-09-19T05:01:22.793Z,31.40
2017-09-19T05:03:49.026Z,32.73
2017-09-19T05:06:15.264Z,31.50
2017-09-19T05:08:41.485Z,31.27
2017-09-19T05:11:07.825Z,33.03
2017-09-19T05:13:34.072Z,34.77
2017-09-19T05:16:01.048Z,31.50
2017-09-19T05:18:27.343Z,33.70
2017-09-19T05:20:53.577Z,33.93
2017-09-19T05:23:20.549Z,34.00
2017-09-19T05:25:46.814Z,34.17
2017-09-19T05:28:13.046Z,34.33
2017-09-19T05:30:39.281Z,35.07
2017-09-19T05:33:05.552Z,34.83
2017-09-19T05:35:32.565Z,36.80
2017-09-19T05:37:58.813Z,34.63
2017-09-19T05:40:25.832Z,36.53
2017-09-19T05:42:52.166Z,36.27
2017-09-19T05:45:18.416Z,35.10
2017-09-19T05:47:45.395Z,35.70
2017-09-19T05:50:11.652Z,31.97
2017-09-19T05:52:37.893Z,33.83
2017-09-19T05:55:04.124Z,35.53
2017-09-19T05:57:30.398Z,33.80
2017-09-19T05:59:56.659Z,35.80
2017-09-19T06:02:22.901Z,33.90
2017-09-19T06:04:50.053Z,34.17
2017-09-19T06:07:16.277Z,36.77
2017-09-19T06:09:42.516Z,36.77
2017-09-19T06:12:08.770Z,39.03
2017-09-19T06:14:35.733Z,38.07
2017-09-19T06:17:01.999Z,37.97
2017-09-19T06:19:28.412Z,39.50
2017-09-19T06:21:54.646Z,38.50
2017-09-19T06:24:20.903Z,38.40
2017-09-19T06:26:47.177Z,39.33
2017-09-19T06:29:13.425Z,41.80
2017-09-19T06:31:39.678Z,40.97
2017-09-19T06:34:06.673Z,42.60
2017-09-19T06:36:33.645Z,42.40
2017-09-19T06:39:00.490Z,40.33
2017-09-19T06:41:26.811Z,41.60
2017-09-19T06:43:53.049Z,43.07
2017-09-19T06:46:19.282Z,39.50
2017-09-19T06:48:46.525Z,42.40
2017-09-19T06:51:12.956Z,41.90
2017-09-19T06:53:39.201Z,41.07
2017-09-19T06:56:05.597Z,42.87
2017-09-19T06:58:32.221Z,41.27
2017-09-19T07:00:59.563Z,39.10
2017-09-19T07:03:26.069Z,42.20
2017-09-19T07:05:52.540Z,43.53
2017-09-19T07:08:18.810Z,42.77
2017-09-19T07:10:45.201Z,40.97
2017-09-19T07:13:12.296Z,42.70
2017-09-19T07:15:38.544Z,45.73
2017-09-19T07:18:04.829Z,48.93
2017-09-19T07:20:31.074Z,43.40
2017-09-19T07:22:57.672Z,44.67
2017-09-19T07:25:25.006Z,43.57
2017-09-19T07:27:51.295Z,43.00
2017-09-19T07:30:17.621Z,42.77
2017-09-19T07:32:44.069Z,46.97
2017-09-19T07:35:10.298Z,45.50
2017-09-19T07:37:36.536Z,43.93
2017-09-19T07:40:02.793Z,42.90
2017-09-19T07:42:29.020Z,46.97
2017-09-19T07:44:55.254Z,45.10
2017-09-19T07:47:22.256Z,47.80
2017-09-19T07:49:48.693Z,45.67
2017-09-19T07:52:15.225Z,45.90
2017-09-19T07:54:41.449Z,46.87
2017-09-19T07:57:07.689Z,49.50
2017-09-19T07:59:34.333Z,46.10
2017-09-19T08:02:00.889Z,56.17
2017-09-19T08:04:27.124Z,102.73
2017-09-19T08:06:54.278Z,48.97
2017-09-19T08:09:21.355Z,61.03
2017-09-19T08:11:48.079Z,63.63
2017-09-19T08:14:15.299Z,69.33
2017-09-19T08:16:42.096Z,51.93
2017-09-19T08:19:08.334Z,44.23
2017-09-19T08:21:34.557Z,46.10
2017-09-19T08:24:00.779Z,44.80
2017-09-19T08:26:27.048Z,43.43
2017-09-19T08:28:53.260Z,49.23
2017-09-19T08:31:19.509Z,43.33
2017-09-19T08:33:45.782Z,42.00
2017-09-19T08:36:12.008Z,48.40
2017-09-19T08:38:38.246Z,45.27
2017-09-19T08:41:04.710Z,41.37
2017-09-19T08:43:30.937Z,42.00
2017-09-19T08:45:57.159Z,90.87
2017-09-19T08:48:23.402Z,75.53
2017-09-19T08:50:49.636Z,46.60
2017-09-19T08:53:15.878Z,161.97
2017-09-19T08:55:42.149Z,39.57
2017-09-19T08:58:08.382Z,53.33
2017-09-19T09:00:34.617Z,46.73
2017-09-19T09:03:00.876Z,43.33
2017-09-19T09:05:27.836Z,35.17
2017-09-19T09:07:54.095Z,45.13
2017-09-19T09:10:20.337Z,38.83
2017-09-19T09:12:46.544Z,39.40
2017-09-19T09:15:13.515Z,40.13
2017-09-19T09:17:39.781Z,44.93
2017-09-19T09:20:06.001Z,56.30
2017-09-19T09:22:32.953Z,36.57
2017-09-19T09:24:59.191Z,40.70
2017-09-19T09:27:25.402Z,57.00
2017-09-19T09:29:51.645Z,39.47
2017-09-19T09:32:17.900Z,40.30
2017-09-19T09:34:44.871Z,38.50
2017-09-19T09:37:11.077Z,44.57
2017-09-19T09:39:38.054Z,35.00
2017-09-19T09:42:04.303Z,34.70
2017-09-19T09:44:30.541Z,35.10
2017-09-19T09:46:56.770Z,36.97
2017-09-19T09:49:23.013Z,40.70
2017-09-19T09:51:49.312Z,45.90
2017-09-19T09:54:15.560Z,38.93
2017-09-19T09:56:41.792Z,32.60
2017-09-19T09:59:08.063Z,35.03
2017-09-19T10:01:34.293Z,36.37
2017-09-19T10:04:00.523Z,50.83
2017-09-19T10:06:27.102Z,63.63
2017-09-19T10:08:53.344Z,34.80
2017-09-19T10:11:19.594Z,39.30
2017-09-19T10:13:46.583Z,39.90
2017-09-19T10:16:12.805Z,34.07
2017-09-19T10:18:39.012Z,35.47
2017-09-19T10:21:05.265Z,33.00
2017-09-19T10:23:31.476Z,31.07
2017-09-19T10:25:57.700Z,35.97
2017-09-19T10:28:23.970Z,35.30
2017-09-19T10:30:50.197Z,50.50
2017-09-19T10:33:16.436Z,35.73
2017-09-19T10:35:42.661Z,33.70
2017-09-19T10:38:08.892Z,34.00
2017-09-19T10:40:35.155Z,33.10
2017-09-19T10:43:01.409Z,54.07
2017-09-19T10:45:27.658Z,47.40
2017-09-19T10:47:54.005Z,41.47
2017-09-19T10:50:20.245Z,65.73
2017-09-19T10:52:47.361Z,43.37
2017-09-19T10:55:14.001Z,43.50
2017-09-19T10:57:40.233Z,41.80
2017-09-19T11:00:06.539Z,34.33
2017-09-19T11:02:32.881Z,47.90
2017-09-19T11:04:59.150Z,47.80
2017-09-19T11:07:25.433Z,39.07
2017-09-19T11:09:51.726Z,30.53
2017-09-19T11:12:18.708Z,29.57
2017-09-19T11:14:45.217Z,31.90
2017-09-19T11:17:11.759Z,31.20
2017-09-19T11:19:38.085Z,32.70
2017-09-19T11:22:04.616Z,29.70
2017-09-19T11:24:31.423Z,54.00
2017-09-19T11:26:59.954Z,32.67
2017-09-19T11:29:26.317Z,21.90
2017-09-19T11:31:52.716Z,24.60
2017-09-19T11:34:19.000Z,26.30
2017-09-19T11:36:45.268Z,24.37
2017-09-19T11:39:11.480Z,22.20
2017-09-19T11:41:38.677Z,23.60
2017-09-19T11:44:04.895Z,30.93
2017-09-19T11:46:31.124Z,34.97
2017-09-19T11:48:57.375Z,37.73
2017-09-19T11:51:23.602Z,36.23
2017-09-19T11:53:49.821Z,28.80
2017-09-19T11:56:16.246Z,23.13
2017-09-19T11:58:42.481Z,26.70
2017-09-19T12:01:08.710Z,29.40
2017-09-19T12:03:34.991Z,25.20
2017-09-19T12:06:01.963Z,34.90
2017-09-19T12:08:28.183Z,21.07
2017-09-19T12:10:54.509Z,47.47
2017-09-19T12:13:20.735Z,28.10
2017-09-19T12:15:46.945Z,16.60
2017-09-19T12:18:13.949Z,32.27
2017-09-19T12:20:40.936Z,28.47
2017-09-19T12:23:07.901Z,19.00
2017-09-19T12:25:34.632Z,27.37
2017-09-19T12:28:00.869Z,17.27
2017-09-19T12:30:27.217Z,16.90
2017-09-19T12:32:53.490Z,14.93
2017-09-19T12:35:20.021Z,12.60
2017-09-19T12:37:46.298Z,13.27
2017-09-19T12:40:12.570Z,10.77
2017-09-19T12:42:38.796Z,14.20
2017-09-19T12:45:05.113Z,25.00
2017-09-19T12:47:31.538Z,13.67
2017-09-19T12:50:01.162Z,17.90
2017-09-19T12:52:27.503Z,18.63
2017-09-19T12:54:53.754Z,11.77
2017-09-19T12:57:20.920Z,11.80
2017-09-19T12:59:47.637Z,22.83
2017-09-19T13:02:14.789Z,11.10
2017-09-19T13:04:41.760Z,16.33
2017-09-19T13:07:08.958Z,15.60
2017-09-19T13:09:35.202Z,20.20
2017-09-19T13:12:02.011Z,23.73
2017-09-19T13:14:28.683Z,27.80
2017-09-19T13:16:54.985Z,7.10
2017-09-19T13:19:21.218Z,9.07
2017-09-19T13:21:47.466Z,11.60
2017-09-19T13:24:13.781Z,9.33
2017-09-19T13:26:40.046Z,14.90
2017-09-19T13:29:07.028Z,16.10
2017-09-19T13:34:39.428Z,12.43
2017-09-19T13:37:05.691Z,21.93
2017-09-19T13:39:31.955Z,19.13
2017-09-19T13:41:58.223Z,14.00
2017-09-19T13:44:24.939Z,17.87
2017-09-19T13:46:51.192Z,10.70
2017-09-19T13:49:17.425Z,30.10
2017-09-19T13:51:43.732Z,21.43
2017-09-19T13:54:10.022Z,15.63
2017-09-19T13:56:37.002Z,20.90
2017-09-19T13:59:03.258Z,9.17
2017-09-19T14:01:29.498Z,7.23
2017-09-19T14:03:55.746Z,12.50
2017-09-19T14:06:23.101Z,9.87
2017-09-19T14:08:50.802Z,14.27
2017-09-19T14:11:17.065Z,8.73
2017-09-19T14:13:43.327Z,10.57
2017-09-19T14:16:10.309Z,6.87
2017-09-19T14:18:36.997Z,25.40
2017-09-19T14:21:04.051Z,10.50
2017-09-19T14:23:31.272Z,9.57
2017-09-19T14:25:58.317Z,5.90
2017-09-19T14:28:24.760Z,6.60
2017-09-19T14:30:51.010Z,10.50
2017-09-19T14:33:18.003Z,5.13
2017-09-19T14:35:44.262Z,6.80
2017-09-19T14:38:10.490Z,14.23
2017-09-19T14:40:36.717Z,7.43
2017-09-19T14:43:02.982Z,8.80
2017-09-19T14:45:30.904Z,13.87
2017-09-19T14:47:57.240Z,9.00
2017-09-19T14:50:23.668Z,11.10
2017-09-19T14:52:50.194Z,9.23
2017-09-19T14:55:17.123Z,8.93
2017-09-19T14:57:43.372Z,8.43
2017-09-19T15:00:09.634Z,5.60
2017-09-19T15:02:36.610Z,8.20
2017-09-19T15:05:02.886Z,8.70
2017-09-19T15:07:29.208Z,6.83
2017-09-19T15:09:55.580Z,7.50
2017-09-19T15:12:23.049Z,8.30
2017-09-19T15:14:49.357Z,8.13
2017-09-19T15:17:15.581Z,8.20
2017-09-19T15:19:41.807Z,6.90
2017-09-19T15:22:08.150Z,7.70
2017-09-19T15:24:35.505Z,5.87
2017-09-19T15:27:02.476Z,7.67
2017-09-19T15:29:28.949Z,9.30
2017-09-19T15:31:55.442Z,13.10
2017-09-19T15:34:21.717Z,10.57
2017-09-19T15:36:47.969Z,7.30
2017-09-19T15:39:14.205Z,7.57
2017-09-19T15:41:41.335Z,11.50
2017-09-19T15:44:07.759Z,6.60
2017-09-19T15:46:34.762Z,6.10
2017-09-19T15:49:01.014Z,7.23
2017-09-19T15:51:27.254Z,2.60
2017-09-19T15:53:53.948Z,3.63
2017-09-19T15:56:20.246Z,2.40
2017-09-19T15:58:47.613Z,1.83
2017-09-19T16:01:14.598Z,3.60
2017-09-19T16:03:41.641Z,1.20
2017-09-19T16:06:08.406Z,12.80
2017-09-19T16:08:34.645Z,11.33
2017-09-19T16:11:00.874Z,1.33
2017-09-19T16:13:27.112Z,2.63
2017-09-19T16:15:53.934Z,1.53
2017-09-19T16:18:20.245Z,1.13
2017-09-19T16:20:46.490Z,1.10
2017-09-19T16:23:12.796Z,2.03
2017-09-19T16:25:39.193Z,1.27
2017-09-19T16:28:06.157Z,0.90
2017-09-19T16:30:32.405Z,1.80
2017-09-19T16:32:58.630Z,1.17
2017-09-19T16:35:25.242Z,2.13
2017-09-19T16:37:52.495Z,1.40
2017-09-19T16:40:19.468Z,1.47
2017-09-19T16:42:46.009Z,1.33
2017-09-19T16:45:12.843Z,2.13
2017-09-19T16:47:39.069Z,3.40
2017-09-19T16:50:05.442Z,19.77
2017-09-19T16:52:31.961Z,2.03
2017-09-19T16:54:58.649Z,3.17
2017-09-19T16:57:25.622Z,2.67
2017-09-19T16:59:51.895Z,3.97
2017-09-19T17:02:18.338Z,5.60
2017-09-19T17:04:45.399Z,10.63
2017-09-19T17:07:12.446Z,6.80
2017-09-19T17:09:39.425Z,1.60
2017-09-19T17:12:05.920Z,6.30
2017-09-19T17:14:32.221Z,1.40
2017-09-19T17:16:58.653Z,1.60
2017-09-19T17:19:25.056Z,1.80
2017-09-19T17:21:52.133Z,2.70
2017-09-19T17:24:18.714Z,1.53
2017-09-19T17:26:45.124Z,1.60
2017-09-19T17:29:12.212Z,1.40
2017-09-19T17:31:38.677Z,3.47
2017-09-19T17:34:05.276Z,1.93
2017-09-19T17:36:31.525Z,1.37
2017-09-19T17:38:57.836Z,1.60
2017-09-19T17:41:24.378Z,2.83
2017-09-19T17:43:50.915Z,1.80
2017-09-19T17:46:17.177Z,4.83
2017-09-19T17:48:43.862Z,2.40
2017-09-19T17:51:10.208Z,2.30
2017-09-19T17:53:36.575Z,2.23
2017-09-19T17:56:02.831Z,3.90
2017-09-19T17:58:29.886Z,2.73
2017-09-19T18:00:57.439Z,3.43
2017-09-19T18:03:24.496Z,2.90
2017-09-19T18:05:50.818Z,3.90
2017-09-19T18:08:18.056Z,3.50
2017-09-19T18:10:45.334Z,6.17
2017-09-19T18:13:12.424Z,6.80
2017-09-19T18:15:38.847Z,2.40
2017-09-19T18:18:05.390Z,1.57
2017-09-19T18:20:31.779Z,9.43
2017-09-19T18:22:58.152Z,0.90
2017-09-19T18:25:24.515Z,1.60
2017-09-19T18:27:50.850Z,4.13
2017-09-19T18:30:17.964Z,17.87
2017-09-19T18:32:44.337Z,2.70
2017-09-19T18:35:11.483Z,82.03
2017-09-19T18:37:38.794Z,3.30
2017-09-19T18:40:05.488Z,11.73
2017-09-19T18:42:32.596Z,112.03
2017-09-19T18:44:59.965Z,91.03
2017-09-19T18:47:26.406Z,17.90
2017-09-19T18:49:53.570Z,2.67
2017-09-19T18:52:19.949Z,2.10
2017-09-19T18:54:46.495Z,6.70
2017-09-19T18:57:12.881Z,2.50
2017-09-19T18:59:39.509Z,6.70
2017-09-19T19:02:05.871Z,6.10
2017-09-19T19:04:32.215Z,5.70
2017-09-19T19:06:58.955Z,4.87
2017-09-19T19:09:25.325Z,2.53
2017-09-19T19:11:52.435Z,5.50
2017-09-19T19:14:19.272Z,2.30
2017-09-19T19:16:45.607Z,4.60
2017-09-19T19:19:11.955Z,5.87
2017-09-19T19:21:38.537Z,3.10
2017-09-19T19:24:04.878Z,8.67
2017-09-19T19:26:31.155Z,3.00
2017-09-19T19:28:57.541Z,24.87
2017-09-19T19:31:24.363Z,3.97
2017-09-19T19:33:50.724Z,19.63
2017-09-19T19:36:17.122Z,14.73
2017-09-19T19:38:43.697Z,8.33
2017-09-19T19:41:10.016Z,4.63
2017-09-19T19:43:36.288Z,5.23
2017-09-19T19:46:02.649Z,14.50
2017-09-19T19:48:30.081Z,6.60
2017-09-19T19:50:57.389Z,8.47
2017-09-19T19:53:24.611Z,4.13
2017-09-19T19:55:51.132Z,5.53
2017-09-19T19:58:20.078Z,8.03
2017-09-19T20:00:49.513Z,8.73
2017-09-19T20:03:19.248Z,7.67
2017-09-19T20:05:46.017Z,3.50
2017-09-19T20:08:12.314Z,2.07
2017-09-19T20:10:39.431Z,2.00
2017-09-19T20:13:05.784Z,3.30
2017-09-19T20:15:32.918Z,2.13
2017-09-19T20:17:59.310Z,1.97
2017-09-19T20:20:25.723Z,2.43
2017-09-19T20:22:52.350Z,2.20
2017-09-19T20:25:19.043Z,2.30
2017-09-19T20:27:45.347Z,2.67
2017-09-19T20:30:12.006Z,2.57
2017-09-19T20:32:38.407Z,7.23
2017-09-19T20:35:04.823Z,1.90
2017-09-19T20:37:32.456Z,2.37
2017-09-19T20:39:58.973Z,1.73
2017-09-19T20:42:25.296Z,2.10
2017-09-19T20:44:52.252Z,6.90
2017-09-19T20:47:18.628Z,2.07
2017-09-19T20:49:44.909Z,2.50
2017-09-19T20:52:11.363Z,3.80
2017-09-19T20:54:37.909Z,10.97
2017-09-19T20:57:05.459Z,10.43
2017-09-19T20:59:31.969Z,4.90
2017-09-19T21:01:58.943Z,10.97
2017-09-19T21:04:31.285Z,8.80
2017-09-19T21:07:03.798Z,3.70
2017-09-19T21:09:38.749Z,2.87
2017-09-19T21:12:16.550Z,4.13
2017-09-19T21:14:49.994Z,2.40
2017-09-19T21:17:22.988Z,4.90
2017-09-19T21:19:49.823Z,4.87
2017-09-19T21:22:16.130Z,5.70
2017-09-19T21:24:42.557Z,3.70
2017-09-19T21:27:09.048Z,4.53
2017-09-19T21:29:36.083Z,5.13
2017-09-19T21:32:02.492Z,4.20
2017-09-19T21:34:29.962Z,4.50
2017-09-19T21:36:56.631Z,3.83
2017-09-19T21:39:23.847Z,5.20
2017-09-19T21:41:50.889Z,4.50
2017-09-19T21:44:17.121Z,3.80
2017-09-19T21:46:43.745Z,6.90
2017-09-19T21:49:10.476Z,12.60
2017-09-19T21:51:37.502Z,4.70
2017-09-19T21:54:03.753Z,4.10
2017-09-19T21:56:30.043Z,5.40
2017-09-19T21:58:57.053Z,4.87
2017-09-19T22:01:24.887Z,6.30
2017-09-19T22:03:51.193Z,4.90
2017-09-19T22:06:18.800Z,4.17
2017-09-19T22:08:45.033Z,4.20
2017-09-19T22:11:11.650Z,3.80
2017-09-19T22:13:37.888Z,4.53
2017-09-19T22:16:04.328Z,4.60
2017-09-19T22:18:30.606Z,4.53
2017-09-19T22:20:57.578Z,4.40
2017-09-19T22:23:25.237Z,4.50
2017-09-19T22:25:51.545Z,4.50
2017-09-19T22:28:18.517Z,4.40
2017-09-19T22:30:44.741Z,4.60
2017-09-19T22:33:11.011Z,6.60
2017-09-19T22:35:37.244Z,5.97
2017-09-19T22:38:03.482Z,5.70
2017-09-19T22:40:29.746Z,5.70
2017-09-19T22:42:55.975Z,6.77
2017-09-19T22:45:23.159Z,7.00
2017-09-19T22:47:49.620Z,8.80
2017-09-19T22:50:16.428Z,7.60
2017-09-19T22:52:42.653Z,7.60
2017-09-19T22:55:08.881Z,8.07
2017-09-19T22:57:35.117Z,8.53
2017-09-19T23:00:01.661Z,9.17
2017-09-19T23:02:28.638Z,9.27
2017-09-19T23:04:55.608Z,10.00
2017-09-19T23:07:22.083Z,9.83
2017-09-19T23:09:48.322Z,9.33
2017-09-19T23:12:14.557Z,9.43
2017-09-19T23:14:40.900Z,10.57
2017-09-19T23:17:07.902Z,10.20
2017-09-19T23:19:34.127Z,9.60
2017-09-19T23:22:00.409Z,10.50
2017-09-19T23:24:27.376Z,11.67
2017-09-19T23:26:53.610Z,10.37
2017-09-19T23:29:19.869Z,10.87
2017-09-19T23:31:46.112Z,10.30
2017-09-19T23:34:12.350Z,10.97
2017-09-19T23:36:38.969Z,9.97
2017-09-19T23:39:05.221Z,11.80
2017-09-19T23:41:31.453Z,10.40
2017-09-19T23:43:58.549Z,10.37
2017-09-19T23:46:24.784Z,10.77
2017-09-19T23:48:51.009Z,11.23
2017-09-19T23:51:17.406Z,10.93
2017-09-19T23:53:43.622Z,11.50
2017-09-19T23:56:10.586Z,11.60
2017-09-19T23:58:37.061Z,11.30
